Time;durP1;ratioP1;P1;durP2;ratioP2;P2;SDS_P1;SDS_P2;PMS_P1;PMS_P2;Temp;Humidity;BMP_temperature;BMP_pressure;BME280_temperature;BME280_humidity;BME280_pressure;Samples;Min_cycle;Max_cycle;Signal;HPM_P1;HPM_P2
2023/10/03 00:00:31;;;;;;;10.85;4.97;;;;;;;;;;5043782;28;20033;-66
2023/10/03 00:03:00;;;;;;;9.63;5.32;;;;;;;;;;5044422;28;20904;-66
2023/10/03 00:05:31;;;;;;;10.35;5.18;;;;;;;;;;5045378;28;20040;-64
2023/10/03 00:08:01;;;;;;;7.63;4.90;;;;;;;;;;5044324;28;20045;-66
2023/10/03 00:10:29;;;;;;;8.20;5.72;;;;;;;;;;5045204;28;20061;-66
2023/10/03 00:12:59;;;;;;;7.72;4.63;;;;;;;;;;5041931;28;20524;-64
2023/10/03 00:15:28;;;;;;;6.97;5.10;;;;;;;;;;5043658;28;20055;-66
2023/10/03 00:17:57;;;;;;;8.98;5.47;;;;;;;;;;5046692;28;20534;-64
2023/10/03 00:20:25;;;;;;;8.80;5.60;;;;;;;;;;5046308;28;20466;-65
2023/10/03 00:22:55;;;;;;;8.68;5.63;;;;;;;;;;5044695;28;20264;-66
2023/10/03 00:25:24;;;;;;;13.98;5.18;;;;;;;;;;5043730;28;20040;-65
2023/10/03 00:27:53;;;;;;;8.35;5.15;;;;;;;;;;5041293;28;20064;-66
2023/10/03 00:30:24;;;;;;;11.27;6.18;;;;;;;;;;5042373;28;20064;-66
2023/10/03 00:32:53;;;;;;;8.27;5.47;;;;;;;;;;5042454;28;20075;-66
2023/10/03 00:35:22;;;;;;;6.88;4.57;;;;;;;;;;5044503;28;20045;-66
2023/10/03 00:37:52;;;;;;;8.75;5.15;;;;;;;;;;5043826;28;20049;-66
2023/10/03 00:40:28;;;;;;;9.25;5.10;;;;;;;;;;5045036;28;20056;-66
2023/10/03 00:42:58;;;;;;;9.70;5.53;;;;;;;;;;5041841;28;20065;-66
2023/10/03 00:45:27;;;;;;;6.80;4.60;;;;;;;;;;5042096;28;20053;-66
2023/10/03 00:47:56;;;;;;;8.80;5.22;;;;;;;;;;5041769;28;20123;-65
2023/10/03 00:50:26;;;;;;;8.23;4.85;;;;;;;;;;5046414;28;20045;-66
2023/10/03 00:52:55;;;;;;;7.22;4.75;;;;;;;;;;5042918;28;21275;-66
2023/10/03 00:55:26;;;;;;;9.27;5.15;;;;;;;;;;5044251;28;20049;-66
2023/10/03 00:58:06;;;;;;;6.90;4.90;;;;;;;;;;5042553;28;20037;-66
2023/10/03 01:00:38;;;;;;;7.45;4.97;;;;;;;;;;5039616;28;20076;-66
2023/10/03 01:03:07;;;;;;;9.07;5.03;;;;;;;;;;5042182;28;20571;-66
2023/10/03 01:05:35;;;;;;;7.45;4.90;;;;;;;;;;5042691;28;20053;-66
2023/10/03 01:08:05;;;;;;;6.57;4.20;;;;;;;;;;5044010;28;20055;-66
2023/10/03 01:10:35;;;;;;;9.20;5.20;;;;;;;;;;5043233;28;20287;-66
2023/10/03 01:13:09;;;;;;;8.63;4.53;;;;;;;;;;5042911;28;20041;-67
2023/10/03 01:15:38;;;;;;;6.25;4.60;;;;;;;;;;5041297;28;20517;-66
2023/10/03 01:18:09;;;;;;;7.82;5.15;;;;;;;;;;5039567;28;20049;-66
2023/10/03 01:20:41;;;;;;;8.80;5.60;;;;;;;;;;5041194;28;20054;-66
2023/10/03 01:23:12;;;;;;;7.32;4.47;;;;;;;;;;5042386;28;20401;-66
2023/10/03 01:25:42;;;;;;;7.30;4.70;;;;;;;;;;5043509;28;20102;-65
2023/10/03 01:28:11;;;;;;;9.00;5.57;;;;;;;;;;5042579;28;20048;-66
2023/10/03 01:30:41;;;;;;;9.32;4.95;;;;;;;;;;5041391;28;20524;-65
2023/10/03 01:33:11;;;;;;;9.60;5.75;;;;;;;;;;5035311;28;20571;-66
2023/10/03 01:35:39;;;;;;;7.82;4.97;;;;;;;;;;5023356;28;20508;-64
2023/10/03 01:38:08;;;;;;;8.60;5.45;;;;;;;;;;5021393;28;20558;-65
2023/10/03 01:40:38;;;;;;;7.43;5.05;;;;;;;;;;5024329;28;20042;-66
2023/10/03 01:43:09;;;;;;;9.13;5.25;;;;;;;;;;5024938;28;20037;-66
2023/10/03 01:45:38;;;;;;;8.90;5.07;;;;;;;;;;5042121;28;20048;-65
2023/10/03 01:48:07;;;;;;;8.43;5.10;;;;;;;;;;5042683;28;20126;-66
2023/10/03 01:50:36;;;;;;;7.88;5.38;;;;;;;;;;5043728;28;20076;-66
2023/10/03 01:53:05;;;;;;;8.85;5.18;;;;;;;;;;5040201;28;20049;-66
2023/10/03 01:55:33;;;;;;;9.50;4.85;;;;;;;;;;5040172;28;20049;-64
2023/10/03 01:58:05;;;;;;;8.43;4.90;;;;;;;;;;5040153;28;20072;-66
2023/10/03 02:00:35;;;;;;;6.85;4.18;;;;;;;;;;5042113;28;20083;-66
2023/10/03 02:03:04;;;;;;;7.28;5.15;;;;;;;;;;5040352;28;20049;-65
2023/10/03 02:05:36;;;;;;;7.78;4.60;;;;;;;;;;5043077;28;20041;-64
2023/10/03 02:08:07;;;;;;;7.45;4.88;;;;;;;;;;5039667;28;20068;-66
2023/10/03 02:10:36;;;;;;;6.25;4.50;;;;;;;;;;5041954;28;20741;-66
2023/10/03 02:13:09;;;;;;;8.23;4.07;;;;;;;;;;5039514;28;20045;-65
2023/10/03 02:15:38;;;;;;;7.72;4.43;;;;;;;;;;5040197;28;20446;-65
2023/10/03 02:18:09;;;;;;;10.15;5.00;;;;;;;;;;5037378;28;20632;-66
2023/10/03 02:20:47;;;;;;;8.48;4.43;;;;;;;;;;5041790;28;20168;-66
2023/10/03 02:23:19;;;;;;;7.68;4.55;;;;;;;;;;5039270;28;20481;-66
2023/10/03 02:25:48;;;;;;;6.18;4.65;;;;;;;;;;5041259;28;20049;-66
2023/10/03 02:28:18;;;;;;;6.18;4.40;;;;;;;;;;5039229;28;20089;-65
2023/10/03 02:30:48;;;;;;;6.82;4.80;;;;;;;;;;5041194;28;20056;-65
2023/10/03 02:33:17;;;;;;;5.95;4.35;;;;;;;;;;5039953;28;20547;-66
2023/10/03 02:35:47;;;;;;;8.05;4.60;;;;;;;;;;5040254;28;20045;-66
2023/10/03 02:38:24;;;;;;;6.22;4.32;;;;;;;;;;5038526;28;20057;-65
2023/10/03 02:40:55;;;;;;;6.22;4.43;;;;;;;;;;5035982;28;20069;-64
2023/10/03 02:43:24;;;;;;;7.20;4.60;;;;;;;;;;5041113;28;20041;-64
2023/10/03 02:45:53;;;;;;;7.95;4.20;;;;;;;;;;5042939;28;20068;-66
2023/10/03 02:48:21;;;;;;;6.50;4.25;;;;;;;;;;5041697;28;20045;-66
2023/10/03 02:50:51;;;;;;;8.40;5.00;;;;;;;;;;5041529;28;20556;-65
2023/10/03 02:53:20;;;;;;;7.00;4.63;;;;;;;;;;5040244;28;20052;-66
2023/10/03 02:55:50;;;;;;;7.78;4.78;;;;;;;;;;5038371;28;20056;-64
2023/10/03 02:58:19;;;;;;;7.00;4.03;;;;;;;;;;5041573;28;20056;-67
2023/10/03 03:00:49;;;;;;;7.43;4.43;;;;;;;;;;5041475;28;20045;-65
2023/10/03 03:03:18;;;;;;;7.47;4.43;;;;;;;;;;5041893;28;20072;-66
2023/10/03 03:05:49;;;;;;;5.63;4.30;;;;;;;;;;5042157;28;20049;-66
2023/10/03 03:08:25;;;;;;;13.18;4.90;;;;;;;;;;5039264;28;20470;-65
2023/10/03 03:10:55;;;;;;;7.35;4.35;;;;;;;;;;5040734;28;20548;-66
2023/10/03 03:13:24;;;;;;;7.15;4.72;;;;;;;;;;5040785;28;20106;-66
2023/10/03 03:15:59;;;;;;;6.82;4.35;;;;;;;;;;5042591;28;20514;-64
2023/10/03 03:18:31;;;;;;;7.72;5.07;;;;;;;;;;5042742;28;20045;-66
2023/10/03 03:21:04;;;;;;;6.97;4.38;;;;;;;;;;5042965;28;20142;-66
2023/10/03 03:23:36;;;;;;;7.50;4.45;;;;;;;;;;5040543;28;20052;-67
2023/10/03 03:26:17;;;;;;;6.13;4.57;;;;;;;;;;5040799;28;20132;-66
2023/10/03 03:28:47;;;;;;;6.45;4.20;;;;;;;;;;5046736;28;20515;-66
2023/10/03 03:31:21;;;;;;;6.32;3.80;;;;;;;;;;5044496;28;20549;-65
2023/10/03 03:33:51;;;;;;;5.53;4.00;;;;;;;;;;5044787;28;20056;-66
2023/10/03 03:36:22;;;;;;;7.05;4.43;;;;;;;;;;5045993;28;20049;-66
2023/10/03 03:38:52;;;;;;;5.65;4.18;;;;;;;;;;5044211;28;20057;-66
2023/10/03 03:41:21;;;;;;;8.13;4.57;;;;;;;;;;5045149;28;20114;-65
2023/10/03 03:43:50;;;;;;;6.40;4.50;;;;;;;;;;5044166;28;20383;-66
2023/10/03 03:46:19;;;;;;;5.72;4.28;;;;;;;;;;5043240;28;20049;-66
2023/10/03 03:48:48;;;;;;;6.53;4.32;;;;;;;;;;5043928;28;20069;-66
2023/10/03 03:51:17;;;;;;;7.53;4.97;;;;;;;;;;5043925;28;20094;-64
2023/10/03 03:53:46;;;;;;;5.53;3.80;;;;;;;;;;5043304;28;20041;-66
2023/10/03 03:56:16;;;;;;;7.53;4.20;;;;;;;;;;5041443;28;20041;-66
2023/10/03 03:58:45;;;;;;;6.47;4.40;;;;;;;;;;5044152;28;20053;-66
2023/10/03 04:01:18;;;;;;;8.50;4.65;;;;;;;;;;5044671;28;20045;-66
2023/10/03 04:03:50;;;;;;;6.32;4.22;;;;;;;;;;5040774;28;20469;-66
2023/10/03 04:06:19;;;;;;;6.82;4.45;;;;;;;;;;5042134;28;20041;-66
2023/10/03 04:08:49;;;;;;;5.50;3.95;;;;;;;;;;5045857;28;20076;-66
2023/10/03 04:11:20;;;;;;;9.70;5.18;;;;;;;;;;5043282;28;20077;-66
2023/10/03 04:13:55;;;;;;;5.45;4.00;;;;;;;;;;5044548;28;20053;-67
2023/10/03 04:16:27;;;;;;;5.95;4.22;;;;;;;;;;5045339;28;20052;-66
2023/10/03 04:18:57;;;;;;;7.38;3.90;;;;;;;;;;5043076;28;20523;-66
2023/10/03 04:21:27;;;;;;;9.40;4.13;;;;;;;;;;5040327;28;20056;-66
2023/10/03 04:23:56;;;;;;;7.25;4.25;;;;;;;;;;5044547;28;20044;-66
2023/10/03 04:26:25;;;;;;;6.90;3.95;;;;;;;;;;5043261;28;20045;-66
2023/10/03 04:28:54;;;;;;;6.32;3.65;;;;;;;;;;5042998;28;20486;-66
2023/10/03 04:31:22;;;;;;;7.05;4.32;;;;;;;;;;5042499;28;20060;-66
2023/10/03 04:33:51;;;;;;;6.55;3.80;;;;;;;;;;5044595;28;20052;-66
2023/10/03 04:36:24;;;;;;;5.07;3.65;;;;;;;;;;5043270;28;20452;-66
2023/10/03 04:38:53;;;;;;;6.40;3.47;;;;;;;;;;5043690;28;20134;-66
2023/10/03 04:41:22;;;;;;;5.93;3.88;;;;;;;;;;5044329;28;20052;-66
2023/10/03 04:43:51;;;;;;;6.25;4.15;;;;;;;;;;5045567;28;20128;-66
2023/10/03 04:46:20;;;;;;;8.30;4.55;;;;;;;;;;5042860;28;20123;-66
2023/10/03 04:48:49;;;;;;;6.20;3.88;;;;;;;;;;5043771;28;20133;-66
2023/10/03 04:51:17;;;;;;;6.10;3.50;;;;;;;;;;5041252;28;20056;-65
2023/10/03 04:53:47;;;;;;;6.82;4.53;;;;;;;;;;5043444;28;20076;-66
2023/10/03 04:56:17;;;;;;;6.72;4.43;;;;;;;;;;5043206;28;20041;-67
2023/10/03 04:58:45;;;;;;;6.25;4.07;;;;;;;;;;5040727;28;20579;-66
2023/10/03 05:01:14;;;;;;;6.68;4.45;;;;;;;;;;5037234;28;20048;-66
2023/10/03 05:03:43;;;;;;;7.18;3.90;;;;;;;;;;5042635;28;20045;-67
2023/10/03 05:06:12;;;;;;;5.65;4.07;;;;;;;;;;5043093;28;20052;-67
2023/10/03 05:08:42;;;;;;;5.78;3.90;;;;;;;;;;5043656;28;20782;-68
2023/10/03 05:11:13;;;;;;;4.68;3.30;;;;;;;;;;5044149;28;20179;-67
2023/10/03 05:13:43;;;;;;;6.30;3.70;;;;;;;;;;5040302;28;20072;-67
2023/10/03 05:16:11;;;;;;;7.07;4.43;;;;;;;;;;5038758;28;20143;-67
2023/10/03 05:18:40;;;;;;;5.78;3.90;;;;;;;;;;5043350;28;20045;-67
2023/10/03 05:21:10;;;;;;;8.18;4.30;;;;;;;;;;5040927;28;20047;-66
2023/10/03 05:23:41;;;;;;;5.20;3.53;;;;;;;;;;5040382;28;20098;-68
2023/10/03 05:26:09;;;;;;;6.90;4.10;;;;;;;;;;5042466;28;20241;-67
2023/10/03 05:28:39;;;;;;;6.43;4.32;;;;;;;;;;5040094;28;20052;-66
2023/10/03 05:31:12;;;;;;;5.20;3.55;;;;;;;;;;5039237;28;20068;-66
2023/10/03 05:33:42;;;;;;;6.50;3.72;;;;;;;;;;5040607;28;20472;-67
2023/10/03 05:36:16;;;;;;;6.60;3.78;;;;;;;;;;5044089;28;20128;-67
2023/10/03 05:38:44;;;;;;;4.70;3.55;;;;;;;;;;5042627;28;20041;-67
2023/10/03 05:41:19;;;;;;;6.40;3.97;;;;;;;;;;5041229;28;20044;-67
2023/10/03 05:43:49;;;;;;;5.65;3.92;;;;;;;;;;5042994;28;20053;-67
2023/10/03 05:46:18;;;;;;;5.43;3.97;;;;;;;;;;5040723;28;20132;-67
2023/10/03 05:48:46;;;;;;;5.00;3.53;;;;;;;;;;5040438;28;20482;-67
2023/10/03 05:51:15;;;;;;;7.65;4.53;;;;;;;;;;5039702;28;20171;-66
2023/10/03 05:53:43;;;;;;;6.30;3.90;;;;;;;;;;5040591;28;20575;-66
2023/10/03 05:56:12;;;;;;;8.02;4.20;;;;;;;;;;5041683;28;20571;-67
2023/10/03 05:58:43;;;;;;;4.53;3.35;;;;;;;;;;5040738;28;20045;-67
2023/10/03 06:01:12;;;;;;;6.90;4.05;;;;;;;;;;5035631;28;20600;-67
2023/10/03 06:03:41;;;;;;;8.95;3.78;;;;;;;;;;5038367;28;20134;-66
2023/10/03 06:06:10;;;;;;;7.05;4.32;;;;;;;;;;5038543;28;20579;-66
2023/10/03 06:08:39;;;;;;;8.77;4.85;;;;;;;;;;5041062;28;20076;-65
2023/10/03 06:11:08;;;;;;;6.65;3.63;;;;;;;;;;5041720;28;20099;-66
2023/10/03 06:13:36;;;;;;;6.32;4.18;;;;;;;;;;5036086;28;20068;-64
2023/10/03 06:16:07;;;;;;;7.55;4.38;;;;;;;;;;5038909;28;20052;-66
2023/10/03 06:18:37;;;;;;;8.80;4.47;;;;;;;;;;5041412;28;20405;-66
2023/10/03 06:21:07;;;;;;;6.22;3.80;;;;;;;;;;5038165;28;20077;-66
2023/10/03 06:23:39;;;;;;;6.65;4.40;;;;;;;;;;5038359;28;20498;-66
2023/10/03 06:26:07;;;;;;;8.88;4.95;;;;;;;;;;5041273;28;20118;-65
2023/10/03 06:28:36;;;;;;;7.15;4.15;;;;;;;;;;5041834;28;20049;-65
2023/10/03 06:31:04;;;;;;;6.43;4.38;;;;;;;;;;5038061;28;20083;-65
2023/10/03 06:33:33;;;;;;;6.57;4.30;;;;;;;;;;5039593;28;20049;-65
2023/10/03 06:36:06;;;;;;;6.07;4.82;;;;;;;;;;5037090;28;20360;-64
2023/10/03 06:38:36;;;;;;;7.22;4.55;;;;;;;;;;5039182;28;20049;-65
2023/10/03 06:41:05;;;;;;;7.85;4.68;;;;;;;;;;5040194;28;20048;-65
2023/10/03 06:43:33;;;;;;;8.05;4.65;;;;;;;;;;5039421;28;20284;-65
2023/10/03 06:46:03;;;;;;;6.47;4.07;;;;;;;;;;5040051;28;20040;-65
2023/10/03 06:48:32;;;;;;;7.75;4.82;;;;;;;;;;5043172;28;20049;-65
2023/10/03 06:51:04;;;;;;;7.22;4.57;;;;;;;;;;5042495;28;20040;-64
2023/10/03 06:53:34;;;;;;;5.95;4.40;;;;;;;;;;5042596;28;20446;-66
2023/10/03 06:56:03;;;;;;;6.00;3.92;;;;;;;;;;5041877;28;20131;-66
2023/10/03 06:58:31;;;;;;;6.15;3.92;;;;;;;;;;5042766;28;20045;-65
2023/10/03 07:01:00;;;;;;;7.80;4.82;;;;;;;;;;5042505;28;20100;-65
2023/10/03 07:03:29;;;;;;;6.90;4.28;;;;;;;;;;5039083;28;20045;-67
2023/10/03 07:05:58;;;;;;;8.10;4.43;;;;;;;;;;5043662;28;20064;-65
2023/10/03 07:08:27;;;;;;;6.75;4.38;;;;;;;;;;5042370;28;20110;-65
2023/10/03 07:10:58;;;;;;;5.32;4.05;;;;;;;;;;5042117;28;20055;-66
2023/10/03 07:13:27;;;;;;;6.80;4.38;;;;;;;;;;5040712;28;20076;-66
2023/10/03 07:15:58;;;;;;;5.60;3.83;;;;;;;;;;5043199;28;20037;-66
2023/10/03 07:18:26;;;;;;;7.13;3.88;;;;;;;;;;5041355;28;20061;-66
2023/10/03 07:20:56;;;;;;;6.50;4.53;;;;;;;;;;5043138;28;20065;-64
2023/10/03 07:23:24;;;;;;;6.78;4.40;;;;;;;;;;5039401;28;20077;-64
2023/10/03 07:25:53;;;;;;;6.63;3.90;;;;;;;;;;5041538;28;20041;-66
2023/10/03 07:28:23;;;;;;;6.65;4.00;;;;;;;;;;5037098;28;20041;-66
2023/10/03 07:30:51;;;;;;;7.50;4.10;;;;;;;;;;5036331;28;20036;-66
2023/10/03 07:33:22;;;;;;;5.75;3.70;;;;;;;;;;5036976;28;20045;-66
2023/10/03 07:35:51;;;;;;;6.25;3.85;;;;;;;;;;5041976;28;20401;-65
2023/10/03 07:38:19;;;;;;;4.95;3.78;;;;;;;;;;5042334;28;20045;-66
2023/10/03 07:40:48;;;;;;;6.22;4.60;;;;;;;;;;5041642;28;20053;-66
2023/10/03 07:43:17;;;;;;;6.07;4.00;;;;;;;;;;5040020;28;20651;-65
2023/10/03 07:45:46;;;;;;;6.35;4.32;;;;;;;;;;5041500;28;20100;-65
2023/10/03 07:48:15;;;;;;;4.80;2.97;;;;;;;;;;5041881;28;20099;-64
2023/10/03 07:50:45;;;;;;;5.90;4.07;;;;;;;;;;5041703;28;20063;-65
2023/10/03 07:53:14;;;;;;;6.60;3.70;;;;;;;;;;5038747;28;21309;-65
2023/10/03 07:55:42;;;;;;;5.00;3.60;;;;;;;;;;5041673;28;20596;-65
2023/10/03 07:58:14;;;;;;;4.72;3.20;;;;;;;;;;5038274;28;20494;-64
2023/10/03 08:00:44;;;;;;;4.93;3.60;;;;;;;;;;5039199;28;20044;-65
2023/10/03 08:03:14;;;;;;;5.38;4.05;;;;;;;;;;5037930;28;20116;-65
2023/10/03 08:05:43;;;;;;;5.75;3.67;;;;;;;;;;5039653;28;20037;-65
2023/10/03 08:08:12;;;;;;;4.55;3.78;;;;;;;;;;5034383;28;20040;-65
2023/10/03 08:10:40;;;;;;;6.38;4.07;;;;;;;;;;5035561;28;20342;-66
2023/10/03 08:13:09;;;;;;;4.57;3.38;;;;;;;;;;5037103;28;20165;-65
2023/10/03 08:15:38;;;;;;;3.75;3.22;;;;;;;;;;5043057;28;20077;-65
2023/10/03 08:18:17;;;;;;;4.88;3.35;;;;;;;;;;5041911;28;20110;-65
2023/10/03 08:20:53;;;;;;;6.20;3.83;;;;;;;;;;5041586;28;20421;-65
2023/10/03 08:23:22;;;;;;;4.43;3.05;;;;;;;;;;5044643;28;20681;-65
2023/10/03 08:25:51;;;;;;;4.25;2.88;;;;;;;;;;5042824;28;20561;-65
2023/10/03 08:28:20;;;;;;;3.33;2.80;;;;;;;;;;5044147;28;20048;-65
2023/10/03 08:30:50;;;;;;;4.25;2.90;;;;;;;;;;5044735;28;20053;-65
2023/10/03 08:33:19;;;;;;;5.13;3.58;;;;;;;;;;5042166;28;20053;-66
2023/10/03 08:35:49;;;;;;;4.78;3.45;;;;;;;;;;5044245;28;20116;-66
2023/10/03 08:38:19;;;;;;;4.38;2.92;;;;;;;;;;5042435;28;20056;-65
2023/10/03 08:40:50;;;;;;;4.05;3.47;;;;;;;;;;5041654;28;20053;-64
2023/10/03 08:43:25;;;;;;;4.95;3.28;;;;;;;;;;5043549;28;20045;-65
2023/10/03 08:45:57;;;;;;;4.97;3.40;;;;;;;;;;5043190;28;20167;-65
2023/10/03 08:48:26;;;;;;;5.53;3.55;;;;;;;;;;5039785;28;20045;-65
2023/10/03 08:50:58;;;;;;;3.50;2.78;;;;;;;;;;5044704;28;20052;-65
2023/10/03 08:53:31;;;;;;;4.18;3.47;;;;;;;;;;5042625;28;20492;-65
2023/10/03 08:56:02;;;;;;;4.90;2.72;;;;;;;;;;5042203;28;20056;-67
2023/10/03 08:58:31;;;;;;;4.10;3.15;;;;;;;;;;5043583;28;20047;-66
2023/10/03 09:01:01;;;;;;;4.55;3.00;;;;;;;;;;5039638;28;20459;-65
2023/10/03 09:03:42;;;;;;;3.92;2.90;;;;;;;;;;5042105;28;20130;-64
2023/10/03 09:06:19;;;;;;;4.07;3.10;;;;;;;;;;5037839;28;20479;-65
2023/10/03 09:08:49;;;;;;;5.43;3.75;;;;;;;;;;5044437;28;20072;-66
2023/10/03 09:11:18;;;;;;;4.35;3.05;;;;;;;;;;5041804;28;20681;-65
2023/10/03 09:13:49;;;;;;;3.47;2.92;;;;;;;;;;5041060;28;20049;-65
2023/10/03 09:16:19;;;;;;;3.53;2.70;;;;;;;;;;5041430;28;20045;-65
2023/10/03 09:18:56;;;;;;;3.88;3.17;;;;;;;;;;5040717;28;20315;-65
2023/10/03 09:21:28;;;;;;;3.70;2.72;;;;;;;;;;5040978;28;20064;-64
2023/10/03 09:24:09;;;;;;;3.00;2.50;;;;;;;;;;5042207;28;20482;-64
2023/10/03 09:26:46;;;;;;;5.53;3.00;;;;;;;;;;5040903;28;20139;-65
2023/10/03 09:29:25;;;;;;;4.05;2.83;;;;;;;;;;5040876;28;20049;-65
2023/10/03 09:32:07;;;;;;;5.55;2.40;;;;;;;;;;5042553;28;20573;-66
2023/10/03 09:34:40;;;;;;;3.65;2.88;;;;;;;;;;5039100;28;20481;-64
2023/10/03 09:37:10;;;;;;;6.10;2.75;;;;;;;;;;5040791;28;20052;-65
2023/10/03 09:39:49;;;;;;;2.92;2.55;;;;;;;;;;5042085;28;20045;-65
2023/10/03 09:42:23;;;;;;;4.05;2.70;;;;;;;;;;5040380;28;20044;-65
2023/10/03 09:44:57;;;;;;;2.88;2.35;;;;;;;;;;5042057;28;20468;-65
2023/10/03 09:47:30;;;;;;;2.80;2.38;;;;;;;;;;5041521;28;20172;-65
2023/10/03 09:50:04;;;;;;;3.92;3.00;;;;;;;;;;5044170;28;20421;-65
2023/10/03 09:52:34;;;;;;;3.00;2.80;;;;;;;;;;5044168;28;20045;-65
2023/10/03 09:55:17;;;;;;;3.17;2.60;;;;;;;;;;5041434;28;20485;-65
2023/10/03 09:57:47;;;;;;;3.85;2.85;;;;;;;;;;5041712;28;20102;-65
2023/10/03 10:00:38;;;;;;;2.65;2.42;;;;;;;;;;5044254;28;20048;-65
2023/10/03 10:03:08;;;;;;;2.67;2.38;;;;;;;;;;5040855;28;20124;-66
2023/10/03 10:05:39;;;;;;;4.65;2.67;;;;;;;;;;5038489;28;20059;-64
2023/10/03 10:08:14;;;;;;;3.55;3.25;;;;;;;;;;5039382;28;20489;-66
2023/10/03 10:10:43;;;;;;;3.53;3.00;;;;;;;;;;5040434;28;20399;-65
2023/10/03 10:13:20;;;;;;;3.17;2.88;;;;;;;;;;5035461;28;20452;-65
2023/10/03 10:16:07;;;;;;;3.58;3.08;;;;;;;;;;5040562;28;20041;-65
2023/10/03 10:18:57;;;;;;;5.90;2.25;;;;;;;;;;5042449;28;20263;-65
2023/10/03 10:21:31;;;;;;;3.35;2.63;;;;;;;;;;5039009;28;20557;-64
2023/10/03 10:24:20;;;;;;;5.20;2.67;;;;;;;;;;5041274;28;20140;-65
2023/10/03 10:26:52;;;;;;;5.95;2.60;;;;;;;;;;5041129;28;20049;-65
2023/10/03 10:29:22;;;;;;;3.78;2.67;;;;;;;;;;5043436;28;20045;-66
2023/10/03 10:31:57;;;;;;;2.58;2.35;;;;;;;;;;5042775;28;20041;-65
2023/10/03 10:34:35;;;;;;;3.60;2.53;;;;;;;;;;5041737;28;20055;-65
2023/10/03 10:37:09;;;;;;;2.95;2.28;;;;;;;;;;5036075;28;20052;-64
2023/10/03 10:40:05;;;;;;;2.83;2.05;;;;;;;;;;5040328;28;20060;-64
2023/10/03 10:42:54;;;;;;;3.00;2.20;;;;;;;;;;5036973;28;20045;-66
2023/10/03 10:45:23;;;;;;;2.72;2.50;;;;;;;;;;5049230;28;20307;-65
2023/10/03 10:47:54;;;;;;;2.60;2.00;;;;;;;;;;5040924;28;20485;-68
2023/10/03 10:50:26;;;;;;;3.05;2.25;;;;;;;;;;5041377;28;20053;-67
2023/10/03 10:52:56;;;;;;;2.10;1.90;;;;;;;;;;5038456;28;20449;-65
2023/10/03 10:55:25;;;;;;;3.40;2.50;;;;;;;;;;5039216;28;20548;-65
2023/10/03 10:58:09;;;;;;;3.40;2.42;;;;;;;;;;5041678;28;20482;-64
2023/10/03 11:00:38;;;;;;;4.00;2.50;;;;;;;;;;5041727;28;20056;-66
2023/10/03 11:03:08;;;;;;;4.30;2.95;;;;;;;;;;5041125;28;20053;-66
2023/10/03 11:05:43;;;;;;;2.63;2.35;;;;;;;;;;5040779;28;20053;-66
2023/10/03 11:08:11;;;;;;;3.00;2.20;;;;;;;;;;5041484;28;20127;-66
2023/10/03 11:10:49;;;;;;;3.28;2.30;;;;;;;;;;5037290;28;20057;-66
2023/10/03 11:13:19;;;;;;;4.40;2.42;;;;;;;;;;5041994;28;20044;-66
2023/10/03 11:15:50;;;;;;;2.60;2.40;;;;;;;;;;5044348;28;20450;-67
2023/10/03 11:18:19;;;;;;;3.22;2.45;;;;;;;;;;5043530;28;20037;-67
2023/10/03 11:20:48;;;;;;;2.40;2.17;;;;;;;;;;5038229;28;20051;-66
2023/10/03 11:23:18;;;;;;;2.63;2.40;;;;;;;;;;5036641;28;20606;-67
2023/10/03 11:25:56;;;;;;;2.42;2.22;;;;;;;;;;5040929;28;20045;-67
2023/10/03 11:28:28;;;;;;;3.78;2.70;;;;;;;;;;5042222;28;20037;-66
2023/10/03 11:31:01;;;;;;;3.13;2.30;;;;;;;;;;5041342;28;20095;-66
2023/10/03 11:33:29;;;;;;;3.17;2.40;;;;;;;;;;5041462;28;20040;-66
2023/10/03 11:35:58;;;;;;;2.38;2.17;;;;;;;;;;5045998;28;20116;-66
2023/10/03 11:38:26;;;;;;;2.15;1.95;;;;;;;;;;5037256;28;20059;-66
2023/10/03 11:40:56;;;;;;;3.47;2.22;;;;;;;;;;5038848;28;20106;-67
2023/10/03 11:43:24;;;;;;;1.95;1.75;;;;;;;;;;5038389;28;20045;-67
2023/10/03 11:45:57;;;;;;;2.30;1.90;;;;;;;;;;5035460;28;20052;-66
2023/10/03 11:48:26;;;;;;;2.42;2.00;;;;;;;;;;5043175;28;20075;-67
2023/10/03 11:50:57;;;;;;;2.10;1.90;;;;;;;;;;5045169;28;20496;-66
2023/10/03 11:53:26;;;;;;;2.97;2.00;;;;;;;;;;5039320;28;20063;-66
2023/10/03 11:55:56;;;;;;;2.88;1.80;;;;;;;;;;5037864;28;20065;-64
2023/10/03 11:58:26;;;;;;;2.20;2.00;;;;;;;;;;5040009;28;20049;-64
2023/10/03 12:00:57;;;;;;;2.15;1.95;;;;;;;;;;5045106;28;20051;-64
2023/10/03 12:03:26;;;;;;;11.07;2.97;;;;;;;;;;5042672;28;20053;-65
2023/10/03 12:05:57;;;;;;;3.03;2.08;;;;;;;;;;5044093;28;20041;-65
2023/10/03 12:08:25;;;;;;;2.25;1.95;;;;;;;;;;5044957;28;20054;-65
2023/10/03 12:10:54;;;;;;;2.55;1.88;;;;;;;;;;5044925;28;20417;-65
2023/10/03 12:13:22;;;;;;;2.15;1.95;;;;;;;;;;5045112;28;21242;-64
2023/10/03 12:15:51;;;;;;;2.00;1.90;;;;;;;;;;5045200;28;20049;-64
2023/10/03 12:18:22;;;;;;;4.05;2.20;;;;;;;;;;5044171;28;20056;-64
2023/10/03 12:20:50;;;;;;;2.40;2.20;;;;;;;;;;5044861;28;20036;-64
2023/10/03 12:23:19;;;;;;;3.22;2.45;;;;;;;;;;5040541;28;20068;-64
2023/10/03 12:25:47;;;;;;;2.15;1.85;;;;;;;;;;5044779;28;20123;-64
2023/10/03 12:28:17;;;;;;;2.42;1.88;;;;;;;;;;5047542;28;20053;-64
2023/10/03 12:30:45;;;;;;;2.08;1.88;;;;;;;;;;5045711;28;20049;-65
2023/10/03 12:33:16;;;;;;;2.63;2.08;;;;;;;;;;5045513;28;20044;-65
2023/10/03 12:35:46;;;;;;;2.85;2.10;;;;;;;;;;5044661;28;20505;-65
2023/10/03 12:38:16;;;;;;;2.53;1.92;;;;;;;;;;5043217;28;20378;-65
2023/10/03 12:40:44;;;;;;;6.13;2.17;;;;;;;;;;5046261;28;20106;-65
2023/10/03 12:43:13;;;;;;;2.22;2.03;;;;;;;;;;5044215;28;20110;-66
2023/10/03 12:45:42;;;;;;;2.22;2.03;;;;;;;;;;5044466;28;20494;-66
2023/10/03 12:48:11;;;;;;;2.22;2.03;;;;;;;;;;5040618;28;20140;-66
2023/10/03 12:50:39;;;;;;;2.03;1.70;;;;;;;;;;5044988;28;20099;-65
2023/10/03 12:53:10;;;;;;;2.20;2.00;;;;;;;;;;5044199;28;20048;-65
2023/10/03 12:55:39;;;;;;;2.28;2.08;;;;;;;;;;5041991;28;20053;-66
2023/10/03 12:58:07;;;;;;;2.15;1.95;;;;;;;;;;5042383;28;20510;-65
2023/10/03 13:00:36;;;;;;;2.22;2.03;;;;;;;;;;5036613;28;20102;-65
2023/10/03 13:03:05;;;;;;;3.08;2.63;;;;;;;;;;5039472;28;20049;-66
2023/10/03 13:05:36;;;;;;;2.20;2.00;;;;;;;;;;5036162;28;20053;-66
2023/10/03 13:08:05;;;;;;;2.65;2.10;;;;;;;;;;5040433;28;20229;-66
2023/10/03 13:10:34;;;;;;;2.22;2.10;;;;;;;;;;5041561;28;20099;-66
2023/10/03 13:13:04;;;;;;;2.78;2.58;;;;;;;;;;5041816;28;20069;-66
2023/10/03 13:15:33;;;;;;;3.83;3.47;;;;;;;;;;5044671;28;20041;-66
2023/10/03 13:18:02;;;;;;;5.88;2.40;;;;;;;;;;5040199;28;20557;-65
2023/10/03 13:20:30;;;;;;;2.45;2.22;;;;;;;;;;5042657;28;20037;-65
2023/10/03 13:23:00;;;;;;;1.92;1.83;;;;;;;;;;5041531;28;20080;-65
2023/10/03 13:25:29;;;;;;;2.67;1.85;;;;;;;;;;5044766;28;20076;-64
2023/10/03 13:27:59;;;;;;;2.45;1.92;;;;;;;;;;5040388;28;20055;-64
2023/10/03 13:30:28;;;;;;;3.60;1.90;;;;;;;;;;5040934;28;20056;-65
2023/10/03 13:32:57;;;;;;;2.58;2.10;;;;;;;;;;5038541;28;20059;-65
2023/10/03 13:35:28;;;;;;;2.47;2.10;;;;;;;;;;5044603;28;20097;-65
2023/10/03 13:37:56;;;;;;;2.13;1.92;;;;;;;;;;5041039;28;20490;-66
2023/10/03 13:40:24;;;;;;;2.30;1.90;;;;;;;;;;5043483;28;20055;-65
2023/10/03 13:42:53;;;;;;;4.00;2.10;;;;;;;;;;5040922;28;20045;-65
2023/10/03 13:45:23;;;;;;;2.53;1.98;;;;;;;;;;5040982;28;20099;-64
2023/10/03 13:47:53;;;;;;;2.35;1.92;;;;;;;;;;5039837;28;20084;-65
2023/10/03 13:50:22;;;;;;;3.38;1.90;;;;;;;;;;5042004;28;20056;-65
2023/10/03 13:52:55;;;;;;;4.65;2.10;;;;;;;;;;5041036;28;20056;-65
2023/10/03 13:55:28;;;;;;;2.17;1.98;;;;;;;;;;5044549;28;20059;-64
2023/10/03 13:57:57;;;;;;;1.67;1.57;;;;;;;;;;5038853;28;20057;-65
2023/10/03 14:00:29;;;;;;;2.53;2.05;;;;;;;;;;5042561;28;20064;-65
2023/10/03 14:03:05;;;;;;;1.70;1.60;;;;;;;;;;5042117;28;20961;-64
2023/10/03 14:05:35;;;;;;;2.60;2.00;;;;;;;;;;5045092;28;20045;-64
2023/10/03 14:08:04;;;;;;;1.80;1.70;;;;;;;;;;5036103;28;20037;-65
2023/10/03 14:10:32;;;;;;;2.08;1.90;;;;;;;;;;5043572;28;20049;-65
2023/10/03 14:13:01;;;;;;;2.42;2.22;;;;;;;;;;5043239;28;20099;-65
2023/10/03 14:15:33;;;;;;;3.45;2.30;;;;;;;;;;5043843;28;20464;-65
2023/10/03 14:18:01;;;;;;;2.22;2.03;;;;;;;;;;5037717;28;20052;-64
2023/10/03 14:20:30;;;;;;;3.08;2.00;;;;;;;;;;5040655;28;20106;-65
2023/10/03 14:23:00;;;;;;;2.03;1.83;;;;;;;;;;5039461;28;20103;-65
2023/10/03 14:25:28;;;;;;;2.60;2.30;;;;;;;;;;5042864;28;20052;-64
2023/10/03 14:27:57;;;;;;;2.28;2.08;;;;;;;;;;5043189;28;20064;-65
2023/10/03 14:30:26;;;;;;;2.40;2.20;;;;;;;;;;5045155;28;20049;-67
2023/10/03 14:32:56;;;;;;;2.20;2.00;;;;;;;;;;5041182;28;20049;-66
2023/10/03 14:35:26;;;;;;;3.42;2.25;;;;;;;;;;5036900;28;20130;-66
2023/10/03 14:37:54;;;;;;;2.83;2.17;;;;;;;;;;5041754;28;20052;-65
2023/10/03 14:40:23;;;;;;;2.20;2.00;;;;;;;;;;5042987;28;20737;-65
2023/10/03 14:42:51;;;;;;;5.28;2.50;;;;;;;;;;5042834;28;20488;-65
2023/10/03 14:45:20;;;;;;;2.72;2.38;;;;;;;;;;5039053;28;20049;-65
2023/10/03 14:47:49;;;;;;;2.13;1.95;;;;;;;;;;5038514;28;20135;-65
2023/10/03 14:50:19;;;;;;;2.55;2.28;;;;;;;;;;5042791;28;20103;-65
2023/10/03 14:52:47;;;;;;;2.33;2.13;;;;;;;;;;5041097;28;20446;-64
2023/10/03 14:55:16;;;;;;;2.50;2.20;;;;;;;;;;5042460;28;20057;-66
2023/10/03 14:57:45;;;;;;;4.03;2.10;;;;;;;;;;5040569;28;20053;-64
2023/10/03 15:00:17;;;;;;;3.72;2.25;;;;;;;;;;5039668;28;20048;-65
2023/10/03 15:02:46;;;;;;;2.45;2.00;;;;;;;;;;5042959;28;20076;-65